Time;durP1;ratioP1;P1;durP2;ratioP2;P2;SDS_P1;SDS_P2;PMS_P1;PMS_P2;Temp;Humidity;BMP_temperature;BMP_pressure;BME280_temperature;BME280_humidity;BME280_pressure;Samples;Min_cycle;Max_cycle;Signal;HPM_P1;HPM_P2
2022/01/27 00:07:04;;;;;;;24.77;10.20;;;;;;;-0.22;95.82;101957.09;20777407;28;20045;-68
2022/01/27 00:17:13;;;;;;;28.67;11.70;;;;;;;-0.12;94.21;101949.03;20736116;28;20042;-68
2022/01/27 00:27:14;;;;;;;26.25;10.57;;;;;;;-0.36;94.30;101934.06;20761683;28;20123;-68
2022/01/27 00:37:16;;;;;;;29.00;11.50;;;;;;;-0.43;94.92;101941.38;20775943;28;20053;-68
2022/01/27 00:47:17;;;;;;;31.45;11.40;;;;;;;-0.47;95.09;101955.78;20776136;28;20046;-70
2022/01/27 01:07:24;;;;;;;24.05;10.95;;;;;;;-0.46;94.89;101944.69;20773031;28;20046;-69
2022/01/27 01:17:55;;;;;;;30.27;11.70;;;;;;;-0.49;96.15;101957.38;20773918;28;20054;-69
2022/01/27 01:38:10;;;;;;;28.77;11.43;;;;;;;-0.43;95.38;101937.13;20777587;28;20058;-70
2022/01/27 01:48:11;;;;;;;29.45;11.57;;;;;;;-0.38;94.63;101927.97;20786835;28;20121;-69
2022/01/27 01:58:13;;;;;;;32.92;11.85;;;;;;;-0.45;94.44;101907.84;20786238;28;20108;-68
2022/01/27 02:18:28;;;;;;;33.58;12.18;;;;;;;-0.66;94.50;101899.88;20785697;28;20053;-71
2022/01/27 02:28:31;;;;;;;33.97;11.93;;;;;;;-0.66;95.09;101907.59;20784321;28;20050;-70
2022/01/27 02:38:52;;;;;;;35.00;13.23;;;;;;;-0.61;94.20;101916.44;20784604;28;20053;-69
2022/01/27 02:49:14;;;;;;;32.95;12.93;;;;;;;-0.56;94.96;101924.41;20782451;28;20041;-69
2022/01/27 02:59:35;;;;;;;37.00;13.25;;;;;;;-0.59;94.83;101925.13;20782681;28;20128;-69
2022/01/27 03:09:56;;;;;;;42.22;14.70;;;;;;;-0.64;96.76;101916.25;20781807;28;20046;-70
2022/01/27 03:20:17;;;;;;;36.83;14.27;;;;;;;-0.57;96.83;101894.34;20781595;28;20124;-70
2022/01/27 03:30:38;;;;;;;39.58;14.85;;;;;;;-0.62;96.63;101872.63;20780131;28;20045;-70
2022/01/27 03:40:41;;;;;;;43.47;15.80;;;;;;;-0.70;97.41;101879.94;20779109;28;20054;-70
2022/01/27 03:51:02;;;;;;;51.00;18.50;;;;;;;-0.70;97.43;101884.19;20779916;28;20403;-70
2022/01/27 04:01:23;;;;;;;50.60;18.10;;;;;;;-0.79;97.44;101866.59;20776469;28;20136;-69
2022/01/27 04:11:44;;;;;;;53.50;20.10;;;;;;;-0.68;97.39;101865.47;20777154;28;20050;-71
2022/01/27 04:22:05;;;;;;;61.63;20.42;;;;;;;-0.63;96.95;101847.69;20777612;28;20046;-71
2022/01/27 04:32:55;;;;;;;57.70;19.77;;;;;;;-0.75;97.32;101841.94;20775638;28;20045;-71
2022/01/27 04:54:01;;;;;;;55.97;19.25;;;;;;;-0.74;97.28;101830.81;20775287;28;20495;-71
2022/01/27 05:04:25;;;;;;;62.65;20.63;;;;;;;-0.74;97.79;101838.53;20776014;28;20041;-70
2022/01/27 05:14:46;;;;;;;58.53;19.40;;;;;;;-0.94;98.66;101861.50;20782342;28;20090;-70
2022/01/27 05:25:06;;;;;;;66.65;21.08;;;;;;;-1.00;99.21;101866.31;20801724;28;20046;-70
2022/01/27 05:35:09;;;;;;;61.67;19.83;;;;;;;-0.97;99.72;101871.59;20787052;28;20053;-70
2022/01/27 05:45:30;;;;;;;60.28;21.23;;;;;;;-1.01;99.65;101881.63;20786986;28;20049;-70
2022/01/27 05:55:51;;;;;;;58.13;20.67;;;;;;;-0.98;99.30;101892.97;20787458;28;20042;-70
2022/01/27 06:06:12;;;;;;;57.38;19.08;;;;;;;-0.83;99.21;101878.38;20787522;28;20045;-70
2022/01/27 06:16:37;;;;;;;48.03;16.02;;;;;;;-0.72;98.51;101865.22;20787225;28;20045;-71
2022/01/27 06:26:58;;;;;;;51.57;17.23;;;;;;;-0.63;97.59;101839.97;20784412;28;20132;-71
2022/01/27 06:37:20;;;;;;;55.67;16.80;;;;;;;-0.72;97.08;101855.81;20782049;28;20049;-70
2022/01/27 06:47:41;;;;;;;56.22;19.67;;;;;;;-0.73;98.83;101868.59;20784402;28;20045;-68
2022/01/27 06:58:02;;;;;;;54.13;19.10;;;;;;;-0.85;99.76;101885.16;20782848;28;20530;-69
2022/01/27 07:08:23;;;;;;;49.50;16.90;;;;;;;-0.91;100.00;101900.25;20781772;28;20041;-69
2022/01/27 07:18:44;;;;;;;49.70;16.52;;;;;;;-0.98;100.00;101876.69;20781655;28;20050;-69
2022/01/27 07:29:05;;;;;;;44.33;15.95;;;;;;;-0.90;99.88;101865.13;20781345;28;20050;-71
2022/01/27 07:39:26;;;;;;;38.22;13.48;;;;;;;-1.04;100.00;101866.94;20778167;28;20057;-70
2022/01/27 07:49:47;;;;;;;39.85;14.23;;;;;;;-0.91;100.00;101863.34;20779247;28;20041;-74
2022/01/27 08:00:10;;;;;;;34.78;12.93;;;;;;;-0.85;100.00;101862.00;20777700;28;20049;-70
2022/01/27 08:10:37;;;;;;;33.05;11.43;;;;;;;-0.83;99.52;101846.66;20781629;28;20041;-71
2022/01/27 08:20:57;;;;;;;30.38;10.90;;;;;;;-0.73;98.87;101845.44;20774718;28;20510;-70
2022/01/27 08:31:19;;;;;;;27.20;10.50;;;;;;;-0.68;99.24;101808.88;20772621;28;20474;-72
2022/01/27 08:41:39;;;;;;;23.13;9.00;;;;;;;-0.50;97.98;101808.06;20776721;28;20041;-71
2022/01/27 08:51:59;;;;;;;23.85;10.00;;;;;;;-0.67;97.83;101790.09;20797092;28;20041;-71
2022/01/27 09:02:21;;;;;;;21.90;8.68;;;;;;;-0.61;96.47;101800.69;20784023;28;20502;-71
2022/01/27 09:12:41;;;;;;;18.75;8.25;;;;;;;-0.45;95.53;101781.78;20785129;28;20057;-75
2022/01/27 09:23:06;;;;;;;20.95;7.72;;;;;;;-0.29;94.81;101791.13;20782096;28;20133;-70
2022/01/27 09:33:09;;;;;;;20.30;8.00;;;;;;;-0.17;94.25;101796.03;20779788;28;20054;-74
2022/01/27 09:43:10;;;;;;;22.85;9.05;;;;;;;-0.20;92.03;101801.91;20779631;28;20053;-71
2022/01/27 09:53:13;;;;;;;30.27;12.10;;;;;;;-0.12;92.00;101792.00;20779949;28;20281;-71
2022/01/27 10:03:16;;;;;;;46.45;17.85;;;;;;;-0.20;93.44;101799.31;20778923;28;20096;-73
2022/01/27 10:13:32;;;;;;;49.37;18.73;;;;;;;-0.06;94.10;101806.06;20779850;28;20048;-70
2022/01/27 10:23:39;;;;;;;52.10;18.38;;;;;;;-0.07;93.41;101813.72;20777703;28;20486;-75
2022/01/27 10:33:46;;;;;;;60.60;21.65;;;;;;;0.07;92.77;101786.94;20775423;28;20128;-72
2022/01/27 10:43:48;;;;;;;50.70;20.15;;;;;;;0.11;92.58;101776.00;20774907;28;20140;-69
2022/01/27 10:54:16;;;;;;;59.75;20.45;;;;;;;0.27;91.21;101759.56;20776068;28;20410;-71
2022/01/27 11:04:19;;;;;;;59.83;21.08;;;;;;;0.43;90.91;101743.13;20773790;28;20103;-71
2022/01/27 11:14:24;;;;;;;56.97;21.17;;;;;;;0.31;90.65;101732.28;20776397;28;20061;-72
2022/01/27 11:24:32;;;;;;;;;;;;;;;0.44;89.83;101711.44;20790081;28;20042;-72
2022/01/27 11:34:45;;;;;;;51.97;19.40;;;;;;;0.44;89.63;101719.16;20771868;28;19975;-72
2022/01/27 11:44:48;;;;;;;47.40;18.67;;;;;;;0.38;90.68;101714.59;20771444;28;20095;-71
2022/01/27 11:55:24;;;;;;;53.45;18.60;;;;;;;0.57;90.92;101710.28;20770846;28;20132;-71
2022/01/27 12:05:28;;;;;;;50.75;20.48;;;;;;;0.55;91.37;101689.59;20728273;28;20427;-70
2022/01/27 12:15:31;;;;;;;44.83;18.23;;;;;;;0.67;90.90;101677.28;20759717;28;20084;-71
2022/01/27 12:25:45;;;;;;;53.25;20.33;;;;;;;0.80;90.39;101645.19;20764096;28;20574;-72
2022/01/27 12:35:54;;;;;;;46.10;19.13;;;;;;;0.74;90.58;101640.66;20762987;28;20053;-71
2022/01/27 12:45:56;;;;;;;43.20;17.15;;;;;;;0.74;90.45;101598.53;20767485;28;20049;-71
2022/01/27 12:55:58;;;;;;;49.20;19.45;;;;;;;1.19;88.06;101594.41;20766814;28;20060;-71
2022/01/27 13:06:03;;;;;;;44.38;18.10;;;;;;;1.43;86.58;101580.75;20764812;28;20050;-71
2022/01/27 13:16:12;;;;;;;40.60;16.77;;;;;;;1.38;87.13;101559.91;20762441;28;20080;-71
2022/01/27 13:26:17;;;;;;;40.92;18.17;;;;;;;1.26;87.79;101562.91;20764160;28;20053;-71
2022/01/27 13:36:25;;;;;;;42.67;17.67;;;;;;;1.43;87.66;101558.41;20771378;28;20056;-69
2022/01/27 13:46:42;;;;;;;38.35;16.50;;;;;;;1.47;87.81;101562.00;20779103;28;20057;-69
2022/01/27 13:56:46;;;;;;;43.05;17.40;;;;;;;1.69;87.87;101562.03;20780029;28;20049;-70
2022/01/27 14:06:56;;;;;;;43.42;17.05;;;;;;;1.77;87.07;101544.22;20778072;28;20111;-69
2022/01/27 14:16:57;;;;;;;41.95;17.45;;;;;;;1.76;88.45;101539.91;20779288;28;20068;-70
2022/01/27 14:27:02;;;;;;;36.35;16.77;;;;;;;1.70;88.86;101557.75;20775719;28;20133;-69
2022/01/27 14:37:03;;;;;;;37.37;16.90;;;;;;;1.49;89.60;101568.13;20774947;28;20503;-71
2022/01/27 14:47:06;;;;;;;36.60;17.23;;;;;;;1.58;90.08;101578.78;20804232;28;20053;-70
2022/01/27 14:57:10;;;;;;;40.53;17.45;;;;;;;1.43;90.25;101584.22;20786267;28;20050;-69
2022/01/27 15:07:12;;;;;;;41.53;18.80;;;;;;;1.45;91.33;101586.88;20774584;28;20045;-69
2022/01/27 15:27:33;;;;;;;39.05;16.38;;;;;;;1.28;94.85;101579.31;20771724;28;20140;-69
2022/01/27 15:37:35;;;;;;;42.42;18.88;;;;;;;1.33;97.64;101576.03;20771064;28;20063;-70
2022/01/27 15:47:38;;;;;;;43.17;18.35;;;;;;;1.21;98.61;101600.53;20772069;28;20132;-70
2022/01/27 15:57:40;;;;;;;44.55;19.00;;;;;;;1.14;98.57;101595.91;20771415;28;20053;-69
2022/01/27 16:07:42;;;;;;;40.55;18.88;;;;;;;1.12;98.79;101582.09;20767998;28;20554;-71
2022/01/27 16:17:43;;;;;;;42.22;18.38;;;;;;;1.17;99.29;101580.59;20771142;28;20487;-70
2022/01/27 16:27:45;;;;;;;47.13;18.48;;;;;;;1.08;100.00;101569.88;20726745;28;20049;-70
2022/01/27 16:37:49;;;;;;;40.97;19.15;;;;;;;1.07;100.00;101582.72;20751703;28;20046;-69
2022/01/27 16:47:51;;;;;;;45.10;20.25;;;;;;;1.03;100.00;101582.59;20767732;28;20053;-69
2022/01/27 16:57:53;;;;;;;44.58;19.45;;;;;;;0.94;100.00;101586.47;20766977;28;20436;-69
2022/01/27 17:07:54;;;;;;;45.17;20.27;;;;;;;0.80;100.00;101592.75;20766805;28;20050;-69
2022/01/27 17:17:56;;;;;;;53.60;21.20;;;;;;;0.69;100.00;101587.13;20785138;28;20045;-69
2022/01/27 17:27:58;;;;;;;46.60;20.73;;;;;;;0.86;100.00;101590.41;20797640;28;20080;-70
2022/01/27 17:38:00;;;;;;;48.80;21.25;;;;;;;0.68;100.00;101588.84;20779328;28;20490;-70
2022/01/27 17:48:02;;;;;;;45.33;20.02;;;;;;;0.72;100.00;101588.16;20781002;28;20064;-70
2022/01/27 17:58:03;;;;;;;50.92;21.90;;;;;;;0.82;100.00;101585.97;20778463;28;20089;-71
2022/01/27 18:08:05;;;;;;;45.72;19.83;;;;;;;0.79;100.00;101583.25;20774855;28;20069;-69
2022/01/27 18:18:06;;;;;;;46.92;21.48;;;;;;;0.94;100.00;101586.47;20783106;28;20045;-69
2022/01/27 18:28:08;;;;;;;40.72;18.55;;;;;;;0.96;100.00;101575.44;20781358;28;20045;-69
2022/01/27 18:38:10;;;;;;;48.47;20.10;;;;;;;0.90;100.00;101587.16;20775990;28;20057;-70
2022/01/27 18:48:13;;;;;;;42.88;19.05;;;;;;;0.94;100.00;101597.66;20780680;28;20513;-69
2022/01/27 18:58:15;;;;;;;39.45;18.65;;;;;;;0.95;100.00;101598.53;20785830;28;20050;-70
2022/01/27 19:08:18;;;;;;;38.90;17.70;;;;;;;0.93;100.00;101616.53;20772155;28;20494;-69
2022/01/27 19:18:19;;;;;;;42.78;18.98;;;;;;;1.01;100.00;101622.03;20773778;28;20060;-69
2022/01/27 19:28:21;;;;;;;37.60;17.20;;;;;;;0.84;100.00;101657.41;20770131;28;20050;-69
2022/01/27 19:38:23;;;;;;;35.15;15.90;;;;;;;1.02;100.00;101662.47;20768626;28;20050;-69
2022/01/27 19:48:27;;;;;;;35.30;16.30;;;;;;;0.99;100.00;101676.09;20768716;28;20137;-69
2022/01/27 19:58:29;;;;;;;33.75;16.50;;;;;;;0.98;100.00;101686.38;20768423;28;20108;-70
2022/01/27 20:08:35;;;;;;;33.63;16.05;;;;;;;0.95;100.00;101689.69;20767153;28;20052;-69
2022/01/27 20:18:37;;;;;;;35.97;17.33;;;;;;;0.97;100.00;101675.19;20771179;28;20053;-69
2022/01/27 20:28:38;;;;;;;32.97;15.77;;;;;;;0.85;100.00;101666.00;20767327;28;20639;-69
2022/01/27 20:38:42;;;;;;;35.80;17.88;;;;;;;0.97;100.00;101692.34;20765582;28;20107;-69
2022/01/27 20:48:44;;;;;;;33.17;16.47;;;;;;;0.90;100.00;101678.28;20765554;28;20103;-69
2022/01/27 20:58:47;;;;;;;34.92;16.77;;;;;;;0.87;100.00;101687.59;20765893;28;20057;-69
2022/01/27 21:08:48;;;;;;;33.95;16.40;;;;;;;1.00;100.00;101723.41;20764190;28;20042;-71
2022/01/27 21:18:51;;;;;;;36.25;17.73;;;;;;;1.06;100.00;101715.97;20767717;28;20550;-69
2022/01/27 21:28:52;;;;;;;36.05;17.23;;;;;;;0.96;100.00;101721.53;20763850;28;20439;-70
2022/01/27 21:38:54;;;;;;;37.47;18.08;;;;;;;0.97;100.00;101756.81;20763536;28;20116;-69
2022/01/27 21:48:55;;;;;;;40.38;17.15;;;;;;;0.96;100.00;101755.94;20769813;28;20046;-69
2022/01/27 21:58:57;;;;;;;38.47;17.92;;;;;;;1.01;100.00;101767.34;20774159;28;20041;-69
2022/01/27 22:08:58;;;;;;;39.63;18.38;;;;;;;1.13;100.00;101804.81;20777871;28;20454;-71
2022/01/27 22:19:01;;;;;;;46.13;20.25;;;;;;;1.16;100.00;101779.16;20778973;28;20462;-70
2022/01/27 22:29:03;;;;;;;39.97;18.73;;;;;;;1.15;100.00;101783.44;20777961;28;20565;-70
2022/01/27 22:39:07;;;;;;;38.38;18.52;;;;;;;1.20;100.00;101802.56;20776361;28;20049;-70
2022/01/27 22:49:10;;;;;;;38.05;18.38;;;;;;;1.11;100.00;101797.00;20776026;28;20041;-70
2022/01/27 22:59:11;;;;;;;40.17;17.17;;;;;;;1.14;100.00;101830.66;20775024;28;20056;-70
2022/01/27 23:09:17;;;;;;;41.17;18.15;;;;;;;1.22;100.00;101824.16;20888863;22;20422;-71
2022/01/27 23:19:35;;;;;;;41.13;17.58;;;;;;;1.34;100.00;101820.34;20906615;28;20111;-69
2022/01/27 23:29:47;;;;;;;39.38;18.35;;;;;;;1.36;100.00;101831.63;20911990;28;20045;-68
